Плавск

Карта отелей и гостиниц, располагающихся рядом с аэропортом Плавск :

Плавск Тульская область 53° 42' 38.88" N, 37° 7' 38.8812" E
Код аэродрома ИКАО
ZAD0
Код аэродрома RU
ЗАД0
Координаты
N53.71080° E037.12747°
Превышение над уровнем моря
247
Основная полоса
06/24
Курс магнитный
058,8/238,8
Длина основной ВПП
400
Ширина основной ВПП
18
Покрытие основной ВПП
Твёрдое (асфальт)
Освещение ВПП
Нет
Тип: 
Аэродром
Класс аэродрома: 
Принадлежность: 
ГА
Статус: 
Недействующий
Сайт: 
E-mail аэродрома: 
Страна: 
Россия
Регион: 
Тульская область
Город: 
Дополнительная информация: 
Площадка АХР.


Найти трансфер

С помощью этой формы Вы можете найти трансфер из аэропорта Плавск в город, аэропорт или вокзал:

Погода в аэропортах:

Авиационная погода в Белгороде

Регион: 
Погода METAR: 
UUOB 212300Z 03001MPS 3000 -SHRA BR OVC010CB 13/12 Q0997 R11/290060 NOSIG
Время наблюдения
2022-05-21T23:00:00Z
Температура C
13.0
Точка росы
12.0
Направление ветра
30
Скорость ветра (узлы)
2
Метео видимость
1.86
Облачность
OVC
Нижняя граница облачности (футы)
1000
Явления погоды
-SHRA BR
Условия полета
IFR
Аэропорт подробнее: 
OVC – сплошная облачность;
-SHRA - слабый ливневой дождь; BR – дымка (видимость от 1 до 9 км);

Авиационная погода в Сыктывкаре

Регион: 
Погода METAR: 
UUYY 212300Z 02004MPS 8000 -SHSN SCT008 BKN018CB M00/M01 Q1004 R36/29//51 NOSIG RMK QFE744/0992
Время наблюдения
2022-05-21T23:00:00Z
Температура C
0.0
Точка росы
-1.0
Направление ветра
20
Скорость ветра (узлы)
8
Метео видимость
4.97
Облачность
SCT
BKN
Нижняя граница облачности (футы)
800
1800
Явления погоды
-SHSN
Условия полета
MVFR
Аэропорт подробнее: 
SCT – разбросанная отдельная облачность; BKN – значительная (рассеянная, разорванная) облачность;
-SHSN - слабый ливневой снег;

Авиационная погода в Волгограде

Регион: 
Погода METAR: 
URWW 212300Z 19004MPS 9000 -RA OVC005 11/11 Q1003 R24/290060 TEMPO 1000 TSRAGR BKN020CB RMK OBST OBSC
Время наблюдения
2022-05-21T23:00:00Z
Температура C
11.0
Точка росы
11.0
Направление ветра
190
Скорость ветра (узлы)
8
Метео видимость
5.59
Облачность
OVC
Нижняя граница облачности (футы)
500
Явления погоды
-RA
Условия полета
IFR
Аэропорт подробнее: 
OVC – сплошная облачность;
-RA - слабый дождь;

Авиационная погода в Ивало

Регион: 
Погода METAR: 
EFIV 212250Z AUTO 11003KT 9999 -RA FEW016 BKN035 07/06 Q1011
Время наблюдения
2022-05-21T22:50:00Z
Температура C
7.0
Точка росы
6.0
Направление ветра
110
Скорость ветра (узлы)
3
Метео видимость
6.21
Облачность
FEW
BKN
Нижняя граница облачности (футы)
1600
3500
Явления погоды
-RA
Условия полета
VFR
FEW – незначительная облачность; BKN – значительная (рассеянная, разорванная) облачность;
-RA - слабый дождь;